Time;durP1;ratioP1;P1;durP2;ratioP2;P2;SDS_P1;SDS_P2;PMS_P1;PMS_P2;Temp;Humidity;BMP_temperature;BMP_pressure;BME280_temperature;BME280_humidity;BME280_pressure;Samples;Min_cycle;Max_cycle;Signal;HPM_P1;HPM_P2
2022/06/27 00:00:37;;;;;;;8.10;4.68;;;;;;;20.78;58.89;100880.50;5045482;28;20045;-88
2022/06/27 00:03:05;;;;;;;12.15;8.40;;;;;;;20.81;59.52;100895.63;5030240;28;20067;-88
2022/06/27 00:05:33;;;;;;;6.43;3.80;;;;;;;20.80;59.77;100905.72;5056629;28;20060;-89
2022/06/27 00:08:06;;;;;;;6.13;3.92;;;;;;;20.78;59.86;100904.28;5034251;28;20037;-88
2022/06/27 00:10:36;;;;;;;8.30;4.43;;;;;;;20.74;59.96;100895.66;5034000;28;20041;-87
2022/06/27 00:13:03;;;;;;;5.97;4.10;;;;;;;20.76;60.01;100909.94;5019354;28;20127;-88
2022/06/27 00:15:28;;;;;;;7.70;4.10;;;;;;;20.55;60.24;100882.97;5025190;28;20025;-87
2022/06/27 00:17:54;;;;;;;6.80;3.80;;;;;;;20.55;60.26;100889.28;5031387;28;20036;-87
2022/06/27 00:20:24;;;;;;;8.63;4.25;;;;;;;20.65;60.01;100897.84;5036751;28;20124;-88
2022/06/27 00:22:52;;;;;;;6.20;3.88;;;;;;;20.75;59.98;100916.47;5034040;28;20033;-88
2022/06/27 00:25:20;;;;;;;6.15;4.20;;;;;;;20.59;60.47;100906.09;5033282;28;20030;-88
2022/06/27 00:27:48;;;;;;;6.63;4.22;;;;;;;20.62;60.75;100908.38;5050859;28;20087;-88
2022/06/27 00:30:14;;;;;;;6.55;4.10;;;;;;;20.49;60.64;100883.88;5051593;28;20425;-88
2022/06/27 00:32:41;;;;;;;6.43;4.00;;;;;;;20.53;60.67;100890.56;5035278;28;20029;-88
2022/06/27 00:35:16;;;;;;;8.00;4.20;;;;;;;20.57;60.50;100897.28;5051297;28;20037;-89
2022/06/27 00:37:44;;;;;;;6.60;4.33;;;;;;;20.40;60.29;100869.66;5042814;28;20036;-89
2022/06/27 00:40:20;;;;;;;8.95;4.00;;;;;;;20.36;60.88;100884.78;5041424;28;20065;-88
2022/06/27 00:42:45;;;;;;;6.97;4.30;;;;;;;20.42;60.79;100878.47;5049437;28;20056;-87
2022/06/27 00:45:11;;;;;;;5.45;4.10;;;;;;;20.47;60.57;100881.34;5032491;28;20040;-88
2022/06/27 00:47:41;;;;;;;8.23;3.97;;;;;;;20.60;59.55;100891.38;5047172;28;20060;-88
2022/06/27 00:50:17;;;;;;;6.50;3.78;;;;;;;20.48;59.87;100895.84;5066721;28;20442;-87
2022/06/27 00:52:43;;;;;;;4.70;3.63;;;;;;;20.48;59.88;100904.03;5056800;28;20043;-88
2022/06/27 00:55:09;;;;;;;6.85;3.50;;;;;;;20.39;59.67;100879.75;5056508;28;20060;-87
2022/06/27 00:57:38;;;;;;;4.88;3.65;;;;;;;20.50;59.44;100902.75;5052655;28;20050;-87
2022/06/27 01:00:08;;;;;;;4.47;3.70;;;;;;;20.52;59.12;100905.28;5049725;28;20520;-85
2022/06/27 01:02:38;;;;;;;6.00;3.67;;;;;;;20.53;59.28;100915.13;5037999;28;20473;-85
2022/06/27 01:05:06;;;;;;;5.05;3.50;;;;;;;20.43;59.15;100889.16;5073283;28;20131;-86
2022/06/27 01:07:35;;;;;;;7.07;4.00;;;;;;;20.44;59.52;100884.53;5070290;28;20044;-86
2022/06/27 01:10:03;;;;;;;4.78;3.70;;;;;;;20.43;59.61;100880.94;5055812;28;20032;-86
2022/06/27 01:12:32;;;;;;;4.57;3.88;;;;;;;20.55;59.25;100899.38;5052986;28;20047;-86
2022/06/27 01:15:01;;;;;;;7.07;3.70;;;;;;;20.31;59.60;100887.34;5031580;28;20533;-85
2022/06/27 01:17:30;;;;;;;6.35;3.38;;;;;;;20.33;59.71;100885.25;5049128;28;20040;-88
2022/06/27 01:19:59;;;;;;;4.57;3.60;;;;;;;20.30;59.68;100883.78;5045552;28;20044;-87
2022/06/27 01:22:27;;;;;;;7.75;3.72;;;;;;;20.32;59.66;100892.59;5034478;28;20032;-88
2022/06/27 01:24:53;;;;;;;5.95;3.65;;;;;;;20.47;59.52;100891.44;5054729;28;21028;-88
2022/06/27 01:27:23;;;;;;;10.18;3.83;;;;;;;20.33;59.92;100886.06;5017865;28;20032;-88
2022/06/27 01:29:50;;;;;;;7.72;3.80;;;;;;;20.42;59.37;100879.28;5069268;28;20047;-87
2022/06/27 01:32:17;;;;;;;4.75;3.58;;;;;;;20.32;59.47;100878.09;5036893;28;20032;-88
2022/06/27 01:34:45;;;;;;;5.50;3.20;;;;;;;20.39;59.43;100892.53;5024803;28;20035;-88
2022/06/27 01:37:13;;;;;;;5.72;3.30;;;;;;;20.42;59.26;100884.75;5029811;28;20488;-89
2022/06/27 01:39:45;;;;;;;7.07;3.42;;;;;;;20.39;59.07;100882.47;5034194;28;20094;-88
2022/06/27 01:42:10;;;;;;;4.72;3.17;;;;;;;20.55;58.89;100885.72;5027736;28;20047;-87
2022/06/27 01:44:47;;;;;;;4.07;3.10;;;;;;;20.51;58.80;100892.66;5013188;28;20045;-86
2022/06/27 01:47:15;;;;;;;4.43;3.08;;;;;;;20.63;58.45;100902.69;5034048;28;20052;-86
2022/06/27 01:49:41;;;;;;;4.00;3.00;;;;;;;20.63;58.25;100897.25;5033365;28;20040;-86
2022/06/27 01:52:10;;;;;;;5.15;2.83;;;;;;;20.63;58.49;100896.41;5013798;28;20051;-87
2022/06/27 01:54:37;;;;;;;6.20;3.15;;;;;;;20.72;58.52;100911.47;5063196;28;20079;-87
2022/06/27 01:57:08;;;;;;;3.60;3.03;;;;;;;20.69;58.65;100883.75;5061317;28;20394;-86
2022/06/27 01:59:33;;;;;;;6.50;3.20;;;;;;;20.75;58.45;100888.34;5036687;28;20071;-88
2022/06/27 02:02:01;;;;;;;9.10;3.45;;;;;;;20.76;58.41;100879.88;5018750;28;20040;-86
2022/06/27 02:04:30;;;;;;;4.15;3.30;;;;;;;20.82;58.33;100886.38;5048641;28;20032;-86
2022/06/27 02:06:58;;;;;;;4.68;3.10;;;;;;;20.69;58.51;100890.03;5035990;28;20799;-85
2022/06/27 02:09:24;;;;;;;4.35;3.20;;;;;;;20.70;58.13;100883.53;5031835;28;20144;-85
2022/06/27 02:11:54;;;;;;;8.45;3.22;;;;;;;20.72;58.45;100889.63;5029119;28;20052;-86
2022/06/27 02:14:21;;;;;;;4.50;3.20;;;;;;;20.70;58.31;100878.06;5050290;28;20059;-86
2022/06/27 02:16:50;;;;;;;7.03;3.47;;;;;;;20.81;58.40;100899.22;5049517;28;20052;-86
2022/06/27 02:19:19;;;;;;;7.20;3.33;;;;;;;20.64;58.73;100896.16;5053725;28;20056;-85
2022/06/27 02:21:45;;;;;;;5.13;3.30;;;;;;;20.68;58.63;100904.78;5044014;28;20071;-86
2022/06/27 02:24:12;;;;;;;6.85;3.53;;;;;;;20.64;58.95;100903.53;5049952;28;20093;-85
2022/06/27 02:26:41;;;;;;;7.07;3.70;;;;;;;20.64;59.05;100903.53;5053274;28;20129;-87
2022/06/27 02:29:07;;;;;;;4.55;3.60;;;;;;;20.47;59.24;100891.44;5034042;28;20040;-86
2022/06/27 02:31:44;;;;;;;8.18;4.00;;;;;;;20.58;59.66;100918.94;5031554;28;20121;-85
2022/06/27 02:34:13;;;;;;;7.82;3.50;;;;;;;20.46;59.65;100893.31;5046753;28;20044;-84
2022/06/27 02:36:41;;;;;;;5.93;3.63;;;;;;;20.40;59.82;100902.41;5050924;28;20484;-85
2022/06/27 02:39:23;;;;;;;5.78;3.38;;;;;;;20.24;60.36;100890.94;5051365;28;20028;-88
2022/06/27 02:41:54;;;;;;;5.35;3.60;;;;;;;20.50;59.87;100908.22;5025739;28;20029;-85
2022/06/27 02:44:21;;;;;;;5.57;3.78;;;;;;;20.40;60.11;100892.31;5036298;28;20037;-85
2022/06/27 02:46:53;;;;;;;8.13;3.80;;;;;;;20.29;60.35;100890.28;5033948;28;20044;-85
2022/06/27 02:49:19;;;;;;;7.35;3.83;;;;;;;20.41;60.27;100887.69;5012936;28;20200;-86
2022/06/27 02:52:11;;;;;;;6.10;3.70;;;;;;;20.43;60.37;100907.44;5027599;28;20063;-85
2022/06/27 02:55:06;;;;;;;4.10;3.50;;;;;;;20.39;60.86;100915.25;5059714;28;20043;-86
2022/06/27 02:57:47;;;;;;;10.20;4.07;;;;;;;20.51;60.66;100919.97;5062157;28;20048;-86
2022/06/27 03:00:13;;;;;;;4.90;3.80;;;;;;;20.35;60.87;100894.88;5053357;28;20090;-86
2022/06/27 03:02:44;;;;;;;7.10;4.00;;;;;;;20.39;60.47;100896.13;5025170;28;20044;-87
2022/06/27 03:05:15;;;;;;;7.57;4.07;;;;;;;20.50;60.34;100907.38;5057385;28;20024;-87
2022/06/27 03:07:42;;;;;;;6.68;3.92;;;;;;;20.63;60.34;100915.53;5045783;28;20033;-87
2022/06/27 03:10:12;;;;;;;6.93;3.70;;;;;;;20.53;60.34;100901.47;5035994;28;20048;-87
2022/06/27 03:12:38;;;;;;;9.02;4.07;;;;;;;20.62;60.22;100905.66;5038093;28;20105;-86
2022/06/27 03:15:05;;;;;;;5.13;3.90;;;;;;;20.72;59.89;100911.47;5055424;28;20028;-85
2022/06/27 03:17:34;;;;;;;5.40;3.72;;;;;;;20.69;60.20;100906.44;5032345;28;20144;-87
2022/06/27 03:20:01;;;;;;;6.95;4.10;;;;;;;20.69;60.30;100900.13;5014112;28;20028;-86
2022/06/27 03:22:32;;;;;;;6.38;3.95;;;;;;;20.79;60.25;100917.72;5023187;28;20029;-85
2022/06/27 03:24:59;;;;;;;5.05;3.72;;;;;;;20.61;60.55;100891.16;5036938;28;20047;-86
2022/06/27 03:27:28;;;;;;;7.68;4.05;;;;;;;20.65;60.34;100905.22;5034314;28;20049;-87
2022/06/27 03:30:00;;;;;;;8.07;4.10;;;;;;;20.77;60.50;100908.06;5019737;28;20048;-86
2022/06/27 03:32:26;;;;;;;8.02;4.25;;;;;;;20.81;60.50;100921.06;5054343;28;20441;-86
2022/06/27 03:34:55;;;;;;;5.80;3.92;;;;;;;20.78;60.21;100905.09;5036762;28;20105;-86
2022/06/27 03:37:21;;;;;;;8.43;4.50;;;;;;;20.75;60.62;100904.72;5071052;28;20036;-86
2022/06/27 03:39:47;;;;;;;6.43;3.97;;;;;;;20.66;61.39;100917.81;5053803;28;20033;-86
2022/06/27 03:42:12;;;;;;;7.50;4.20;;;;;;;20.54;61.87;100912.19;5016650;28;20045;-88
2022/06/27 03:44:47;;;;;;;6.78;4.30;;;;;;;20.57;61.28;100887.19;5055569;28;20146;-87
2022/06/27 03:47:13;;;;;;;6.88;4.43;;;;;;;20.69;61.26;100900.97;5072630;28;20065;-86
2022/06/27 03:52:24;;;;;;;5.53;4.23;;;;;;;20.62;61.73;100906.47;5056134;28;20048;-87
2022/06/27 03:54:51;;;;;;;8.25;4.78;;;;;;;20.76;61.64;100911.84;5055706;28;20056;-88
2022/06/27 03:57:16;;;;;;;6.68;4.50;;;;;;;20.85;61.44;100918.72;5053885;28;20068;-88
2022/06/27 03:59:46;;;;;;;7.65;4.93;;;;;;;20.94;61.08;100902.88;5035154;28;20041;-87
2022/06/27 04:02:18;;;;;;;8.48;4.90;;;;;;;21.16;60.82;100925.16;5035576;28;20047;-87
2022/06/27 04:04:45;;;;;;;11.57;4.80;;;;;;;21.40;60.26;100926.22;5044871;28;20218;-88
2022/06/27 04:07:12;;;;;;;8.77;4.85;;;;;;;21.57;59.93;100923.75;5084489;28;20040;-88
2022/06/27 04:09:41;;;;;;;11.35;4.97;;;;;;;21.73;59.15;100927.75;5036909;28;20040;-87
2022/06/27 04:12:12;;;;;;;8.23;4.97;;;;;;;21.87;58.71;100929.28;5052190;28;20047;-89
2022/06/27 04:14:43;;;;;;;14.32;5.30;;;;;;;21.92;58.57;100916.59;5053907;28;20055;-89
2022/06/27 04:17:10;;;;;;;11.30;4.95;;;;;;;22.00;58.45;100912.69;5055368;28;20062;-89
2022/06/27 04:19:38;;;;;;;6.15;5.18;;;;;;;22.01;58.36;100914.38;5030367;28;20037;-89
2022/06/27 04:22:14;;;;;;;11.48;5.60;;;;;;;22.29;57.99;100934.91;5032370;28;20056;-90
2022/06/27 04:24:49;;;;;;;13.27;6.13;;;;;;;22.05;58.41;100931.97;5053129;28;20040;-88
2022/06/27 04:27:17;;;;;;;;;;;;;;;22.32;57.86;100935.25;5053115;28;20047;-89
2022/06/27 04:29:51;;;;;;;15.63;5.72;;;;;;;22.36;57.92;100927.41;5069357;28;19912;-88
2022/06/27 04:32:28;;;;;;;9.32;5.45;;;;;;;22.37;57.46;100907.16;5054397;28;20024;-90
2022/06/27 04:34:54;;;;;;;8.90;5.45;;;;;;;22.72;56.81;100931.91;5021896;28;20041;-90
2022/06/27 04:37:21;;;;;;;9.43;5.68;;;;;;;22.72;56.38;100899.03;5053549;28;20031;-90
2022/06/27 04:39:49;;;;;;;16.10;5.65;;;;;;;23.06;56.15;100937.75;5034471;28;20055;-88
2022/06/27 04:42:15;;;;;;;7.63;5.65;;;;;;;23.38;55.35;100940.13;5020610;28;20037;-86
2022/06/27 04:44:42;;;;;;;10.93;5.53;;;;;;;23.71;54.16;100933.97;5032840;28;20035;-86
2022/06/27 04:47:09;;;;;;;18.55;6.40;;;;;;;24.00;53.49;100923.94;5031535;28;20378;-86
2022/06/27 04:49:38;;;;;;;15.98;6.13;;;;;;;24.31;52.87;100929.19;5031353;28;20071;-86
2022/06/27 04:52:08;;;;;;;13.30;6.65;;;;;;;24.50;52.31;100903.19;5015447;28;20115;-84
2022/06/27 04:54:34;;;;;;;26.00;7.50;;;;;;;24.99;51.25;100928.22;5024243;28;20040;-86
2022/06/27 04:57:00;;;;;;;15.63;7.43;;;;;;;25.06;50.52;100909.63;5026723;28;20030;-83
2022/06/27 04:59:27;;;;;;;15.10;7.65;;;;;;;25.32;49.79;100928.47;5077491;28;20064;-83
2022/06/27 05:01:55;;;;;;;11.43;7.60;;;;;;;25.37;49.79;100923.88;5064635;28;20028;-84
2022/06/27 05:04:23;;;;;;;10.80;7.57;;;;;;;25.28;49.98;100923.44;5047231;28;20466;-83
2022/06/27 05:06:55;;;;;;;15.38;7.35;;;;;;;25.39;49.87;100931.88;5043161;28;20142;-84
2022/06/27 05:09:21;;;;;;;12.25;7.28;;;;;;;25.34;50.01;100913.38;5070253;28;20080;-84
2022/06/27 05:11:50;;;;;;;15.43;7.57;;;;;;;25.49;49.54;100929.25;5009316;28;20088;-84
2022/06/27 05:14:17;;;;;;;19.85;7.15;;;;;;;25.58;49.33;100921.41;5024221;28;20040;-83
2022/06/27 05:16:44;;;;;;;15.52;8.23;;;;;;;25.35;49.64;100915.03;5048312;28;20051;-83
2022/06/27 05:19:14;;;;;;;21.40;8.02;;;;;;;25.52;49.79;100937.03;5052541;28;20451;-83
2022/06/27 05:21:42;;;;;;;14.55;7.60;;;;;;;25.76;49.25;100934.88;5034698;28;20048;-84
2022/06/27 05:24:09;;;;;;;20.17;9.73;;;;;;;26.15;48.38;100928.47;5053651;28;20087;-84
2022/06/27 05:26:35;;;;;;;17.75;7.82;;;;;;;26.47;47.21;100931.28;5047616;28;20067;-83
2022/06/27 05:29:02;;;;;;;18.80;8.23;;;;;;;26.84;46.48;100930.56;5067333;28;20044;-85
2022/06/27 05:31:35;;;;;;;21.92;8.45;;;;;;;27.19;45.88;100938.28;5030277;28;20035;-85
2022/06/27 05:34:01;;;;;;;11.30;7.18;;;;;;;27.15;45.36;100942.66;5052133;28;20124;-82
2022/06/27 05:36:28;;;;;;;16.40;7.50;;;;;;;27.14;45.84;100944.59;5052406;28;20128;-82
2022/06/27 05:38:57;;;;;;;17.27;8.48;;;;;;;27.50;44.95;100936.56;5045580;28;20032;-82
2022/06/27 05:41:23;;;;;;;22.80;8.68;;;;;;;27.73;44.88;100940.03;5067402;28;20500;-81
2022/06/27 05:43:49;;;;;;;19.52;8.05;;;;;;;28.26;44.17;100951.88;5052011;28;20151;-84
2022/06/27 05:46:16;;;;;;;24.25;9.93;;;;;;;28.47;42.89;100930.66;5040068;28;20436;-89
2022/06/27 05:48:47;;;;;;;16.55;7.95;;;;;;;28.83;41.98;100941.75;5038804;28;20039;-87
2022/06/27 05:51:17;;;;;;;19.48;9.23;;;;;;;29.20;41.23;100933.16;5064672;28;20457;-85
2022/06/27 05:53:46;;;;;;;16.25;8.55;;;;;;;29.35;40.94;100948.09;5054745;28;20442;-88
2022/06/27 05:56:14;;;;;;;20.13;8.20;;;;;;;29.18;41.18;100943.69;5047944;28;20044;-88
2022/06/27 05:58:59;;;;;;;16.55;8.32;;;;;;;29.27;41.17;100946.72;5051101;28;20036;-87
2022/06/27 06:01:29;;;;;;;12.23;8.70;;;;;;;29.07;42.13;100961.41;5081894;28;20045;-87
2022/06/27 06:03:56;;;;;;;14.05;7.93;;;;;;;29.11;41.44;100945.91;5048946;28;20058;-88
2022/06/27 06:06:22;;;;;;;16.70;8.85;;;;;;;29.01;42.14;100937.59;5041503;28;20063;-88
2022/06/27 06:08:50;;;;;;;20.55;9.50;;;;;;;29.20;42.28;100957.25;5063292;28;20036;-88
2022/06/27 06:11:17;;;;;;;20.25;8.93;;;;;;;29.33;42.46;100958.63;5039598;28;20480;-87
2022/06/27 06:13:51;;;;;;;22.20;8.38;;;;;;;29.35;42.26;100950.88;5050710;28;20455;-88
2022/06/27 06:16:20;;;;;;;18.00;8.15;;;;;;;29.50;41.44;100931.47;5051930;28;20036;-88
2022/06/27 06:18:57;;;;;;;15.27;8.35;;;;;;;29.86;40.84;100934.13;5021457;28;20037;-86
2022/06/27 06:21:27;;;;;;;17.33;8.55;;;;;;;30.02;40.53;100949.56;5045844;28;20032;-87
2022/06/27 06:23:53;;;;;;;14.45;8.82;;;;;;;30.01;40.67;100930.44;5054168;28;20040;-87
2022/06/27 06:26:30;;;;;;;17.15;8.43;;;;;;;29.92;40.73;100938.50;5034888;28;20028;-89
2022/06/27 06:29:05;;;;;;;19.33;8.85;;;;;;;29.92;40.70;100944.06;5055184;28;20052;-88
2022/06/27 06:31:43;;;;;;;18.92;8.80;;;;;;;29.85;40.77;100938.00;5053540;28;20086;-89
2022/06/27 06:34:13;;;;;;;11.00;8.85;;;;;;;30.08;40.32;100953.97;5037208;28;20033;-89
2022/06/27 06:36:45;;;;;;;17.23;8.20;;;;;;;29.96;40.37;100931.28;5071247;28;20511;-86
2022/06/27 06:39:14;;;;;;;18.20;8.20;;;;;;;30.19;40.00;100928.97;5052545;28;20127;-88
2022/06/27 06:41:40;;;;;;;18.02;8.02;;;;;;;30.20;40.08;100944.47;5049807;28;20048;-88
2022/06/27 06:44:10;;;;;;;15.43;8.27;;;;;;;30.43;40.00;100940.22;5065746;28;20925;-88
2022/06/27 06:46:48;;;;;;;14.57;8.20;;;;;;;30.54;39.59;100927.13;5051981;28;20032;-87
2022/06/27 06:49:13;;;;;;;12.63;7.40;;;;;;;30.96;38.76;100918.19;5037640;28;20055;-89
2022/06/27 06:51:44;;;;;;;11.95;7.20;;;;;;;31.25;38.00;100914.56;5074265;28;20028;-89
2022/06/27 06:54:20;;;;;;;13.70;7.20;;;;;;;31.33;37.47;100906.44;5061655;28;20117;-88
2022/06/27 06:56:50;;;;;;;16.15;6.80;;;;;;;31.61;36.87;100937.28;5054877;28;20032;-88
2022/06/27 06:59:19;;;;;;;8.63;5.25;;;;;;;31.75;35.71;100938.22;5088988;28;20024;-89
2022/06/27 07:01:47;;;;;;;18.23;5.07;;;;;;;31.71;35.54;100933.53;5031378;28;20044;-88
2022/06/27 07:04:19;;;;;;;14.68;5.30;;;;;;;31.76;35.71;100936.25;5056680;28;20655;-85
2022/06/27 07:06:45;;;;;;;8.35;5.00;;;;;;;31.85;34.96;100939.22;5056327;28;20040;-85
2022/06/27 07:09:11;;;;;;;6.82;4.75;;;;;;;31.99;34.06;100912.38;5051745;28;20052;-85
2022/06/27 07:11:40;;;;;;;11.57;5.20;;;;;;;32.10;34.75;100936.13;5075322;28;20044;-86
2022/06/27 07:14:09;;;;;;;13.23;5.03;;;;;;;32.28;33.86;100939.22;5047983;28;20037;-89
2022/06/27 07:16:38;;;;;;;6.95;4.40;;;;;;;32.16;33.49;100922.97;5068801;28;20519;-89
2022/06/27 07:19:08;;;;;;;15.10;4.45;;;;;;;32.20;33.83;100923.22;5046995;28;20087;-83
2022/06/27 07:21:35;;;;;;;10.18;4.50;;;;;;;32.21;33.35;100924.84;5034913;28;20138;-84
2022/06/27 07:24:02;;;;;;;13.82;4.30;;;;;;;32.23;32.97;100919.81;5055572;28;20039;-83
2022/06/27 07:26:32;;;;;;;9.15;5.10;;;;;;;32.53;33.29;100915.78;5041285;28;20131;-84
2022/06/27 07:29:03;;;;;;;7.90;3.63;;;;;;;32.65;32.16;100907.78;5046539;28;20044;-88
2022/06/27 07:31:30;;;;;;;15.20;4.40;;;;;;;32.74;32.36;100921.84;5033834;28;20041;-88
2022/06/27 07:34:08;;;;;;;8.88;4.47;;;;;;;32.82;32.94;100910.00;5069666;28;20111;-88
2022/06/27 07:36:38;;;;;;;10.75;4.53;;;;;;;32.66;32.80;100903.84;5030920;28;20072;-84
2022/06/27 07:39:09;;;;;;;7.53;4.53;;;;;;;32.85;32.90;100923.34;5034335;28;20021;-86
2022/06/27 07:41:35;;;;;;;9.02;4.70;;;;;;;32.81;32.69;100911.16;5073254;28;20182;-86
2022/06/27 07:44:24;;;;;;;8.80;4.45;;;;;;;32.95;32.05;100903.66;5055106;28;20037;-84
2022/06/27 07:46:51;;;;;;;8.70;4.07;;;;;;;33.18;31.75;100914.97;5051852;28;20036;-88
2022/06/27 07:49:17;;;;;;;16.08;4.30;;;;;;;33.42;31.47;100904.47;5039865;28;20099;-84
2022/06/27 07:51:47;;;;;;;8.75;4.45;;;;;;;33.59;31.68;100903.06;5048261;28;20032;-83
2022/06/27 07:54:24;;;;;;;11.35;4.30;;;;;;;33.68;31.19;100914.31;5058370;28;20036;-86
2022/06/27 07:56:52;;;;;;;5.35;4.03;;;;;;;33.93;30.37;100912.94;5063057;28;20037;-87
2022/06/27 07:59:34;;;;;;;8.27;4.68;;;;;;;33.67;30.98;100905.13;5061789;28;20060;-86
2022/06/27 08:02:11;;;;;;;6.07;4.17;;;;;;;33.92;31.37;100914.88;5078503;28;20071;-87
2022/06/27 08:04:44;;;;;;;10.18;4.30;;;;;;;33.96;31.20;100917.88;5066535;28;20036;-85
2022/06/27 08:07:11;;;;;;;6.93;4.53;;;;;;;34.15;30.87;100910.22;5065786;28;20032;-88
2022/06/27 08:09:42;;;;;;;13.38;4.03;;;;;;;33.99;30.87;100918.06;5056336;28;20076;-85
2022/06/27 08:12:13;;;;;;;14.13;4.68;;;;;;;33.76;31.64;100919.13;5044910;28;20056;-90
2022/06/27 08:15:16;;;;;;;10.82;4.38;;;;;;;34.16;30.62;100922.19;5047047;28;20110;-88
2022/06/27 08:17:45;;;;;;;12.35;4.50;;;;;;;34.25;30.80;100921.16;5074538;28;20056;-87
2022/06/27 08:20:17;;;;;;;6.00;4.30;;;;;;;34.28;30.38;100913.28;5057121;28;20110;-90
2022/06/27 08:22:44;;;;;;;9.52;4.40;;;;;;;34.77;29.34;100917.13;5042552;28;20036;-88
2022/06/27 08:25:14;;;;;;;8.77;4.00;;;;;;;35.02;29.15;100913.69;5035125;28;20052;-87
2022/06/27 08:27:42;;;;;;;7.10;4.05;;;;;;;35.04;28.46;100908.63;5056310;28;20063;-87
2022/06/27 08:30:25;;;;;;;5.60;3.85;;;;;;;34.82;28.73;100906.69;5072548;28;20500;-86
2022/06/27 08:32:57;;;;;;;15.15;4.30;;;;;;;35.17;28.84;100900.47;5044713;28;20047;-84
2022/06/27 08:35:26;;;;;;;8.70;3.88;;;;;;;35.42;28.59;100905.34;5056347;28;20147;-89
2022/06/27 08:37:56;;;;;;;9.23;3.95;;;;;;;35.77;27.92;100899.09;5054125;28;20510;-88
2022/06/27 08:40:27;;;;;;;9.30;3.97;;;;;;;36.43;26.73;100899.81;5040222;28;20100;-89
2022/06/27 08:43:01;;;;;;;10.85;4.10;;;;;;;36.76;26.33;100899.31;5036749;28;20045;-86
2022/06/27 08:45:31;;;;;;;11.93;3.60;;;;;;;36.28;26.97;100892.75;5058255;28;20133;-89
2022/06/27 08:48:06;;;;;;;9.82;3.70;;;;;;;36.55;26.43;100899.19;5039957;28;20055;-90
2022/06/27 08:50:38;;;;;;;6.03;3.35;;;;;;;36.31;26.31;100889.28;5038760;28;20033;-87
2022/06/27 08:53:07;;;;;;;8.40;3.63;;;;;;;36.55;26.52;100886.00;5058998;28;20028;-89
2022/06/27 08:55:38;;;;;;;6.65;3.65;;;;;;;36.96;26.11;100883.78;5062255;28;20032;-86
2022/06/27 08:58:10;;;;;;;5.55;3.92;;;;;;;37.06;26.13;100903.06;5082725;28;20070;-89
2022/06/27 09:00:41;;;;;;;7.90;3.40;;;;;;;37.38;25.23;100890.41;5067844;28;20044;-87
2022/06/27 09:03:18;;;;;;;9.73;4.57;;;;;;;37.90;24.34;100894.09;5063929;28;20443;-88
2022/06/27 09:06:13;;;;;;;9.77;3.55;;;;;;;38.30;24.08;100882.44;5036044;28;20470;-88
2022/06/27 09:09:12;;;;;;;5.47;3.22;;;;;;;38.34;24.13;100877.78;5085004;28;20033;-89
2022/06/27 09:11:47;;;;;;;10.93;3.20;;;;;;;37.87;24.28;100898.41;5084782;28;20054;-87
2022/06/27 09:14:41;;;;;;;6.38;3.80;;;;;;;38.15;23.94;100901.53;5066322;28;20161;-89
2022/06/27 09:17:29;;;;;;;6.60;3.80;;;;;;;38.01;24.13;100884.16;5039164;28;20033;-87
2022/06/27 09:19:56;;;;;;;7.05;3.55;;;;;;;38.99;22.77;100880.97;5040938;28;20271;-87
2022/06/27 09:22:28;;;;;;;7.47;3.30;;;;;;;39.08;22.79;100875.22;5040972;28;20033;-85
2022/06/27 09:25:01;;;;;;;6.95;3.47;;;;;;;39.09;22.93;100872.06;5042083;28;20190;-87
2022/06/27 09:27:55;;;;;;;6.30;3.28;;;;;;;38.84;22.92;100882.41;5059426;28;20484;-92
2022/06/27 09:30:38;;;;;;;8.60;4.10;;;;;;;39.39;22.65;100888.75;5064803;28;20102;-89
2022/06/27 09:33:09;;;;;;;22.67;3.60;;;;;;;39.03;22.85;100881.88;5056349;28;20048;-89
2022/06/27 09:35:36;;;;;;;7.93;3.40;;;;;;;38.77;23.35;100868.09;5054844;28;20032;-87
2022/06/27 09:38:13;;;;;;;7.22;3.20;;;;;;;39.47;22.04;100868.94;5040596;28;20041;-87
2022/06/27 09:40:42;;;;;;;6.93;3.30;;;;;;;39.49;21.54;100860.16;5050369;28;20467;-88
2022/06/27 09:43:11;;;;;;;12.23;3.13;;;;;;;40.02;20.20;100861.03;5025742;28;20051;-86
2022/06/27 09:45:41;;;;;;;4.07;2.70;;;;;;;40.50;19.55;100864.84;5035261;28;20350;-88
2022/06/27 09:48:16;;;;;;;4.00;2.63;;;;;;;41.31;19.34;100875.88;5050678;28;20056;-88
2022/06/27 09:50:42;;;;;;;6.07;2.97;;;;;;;42.11;18.46;100853.97;5059020;28;20033;-88
2022/06/27 09:53:09;;;;;;;4.80;3.28;;;;;;;43.26;17.17;100863.81;5050246;28;20070;-88
2022/06/27 09:55:39;;;;;;;18.65;3.25;;;;;;;42.32;18.70;100873.34;5061308;28;20048;-86
2022/06/27 09:58:09;;;;;;;9.07;2.67;;;;;;;42.91;17.49;100859.16;5038106;28;20123;-87
2022/06/27 10:00:38;;;;;;;4.03;2.70;;;;;;;43.77;16.77;100869.88;5040562;28;20051;-87
2022/06/27 10:03:10;;;;;;;4.88;2.75;;;;;;;44.19;16.36;100870.84;5067942;28;20096;-87
2022/06/27 10:05:59;;;;;;;12.10;2.88;;;;;;;44.31;16.27;100849.94;5055035;28;20044;-84
2022/06/27 10:08:25;;;;;;;13.60;3.22;;;;;;;44.71;16.07;100854.03;5044274;28;20116;-83
2022/06/27 10:11:07;;;;;;;3.40;3.00;;;;;;;45.35;15.19;100862.31;5047566;28;20047;-85
2022/06/27 10:14:13;;;;;;;11.18;3.13;;;;;;;44.35;16.32;100867.78;5063462;28;20040;-86
2022/06/27 10:16:58;;;;;;;11.15;3.00;;;;;;;44.21;16.48;100871.28;5033089;28;20036;-86
2022/06/27 10:19:29;;;;;;;5.93;2.80;;;;;;;44.10;15.95;100834.31;5022611;28;20430;-85
2022/06/27 10:21:56;;;;;;;16.33;3.72;;;;;;;44.40;16.05;100837.09;5054832;28;20037;-85
2022/06/27 10:24:24;;;;;;;10.00;3.13;;;;;;;44.59;16.78;100855.94;5055616;28;20473;-86
2022/06/27 10:26:59;;;;;;;8.52;2.83;;;;;;;44.71;16.12;100835.00;5050418;28;20033;-86
2022/06/27 10:29:39;;;;;;;11.95;3.00;;;;;;;44.59;14.82;100838.94;5062552;28;20485;-85
2022/06/27 10:32:41;;;;;;;15.90;2.80;;;;;;;43.69;16.67;100839.00;5075493;28;20099;-85
2022/06/27 10:35:09;;;;;;;5.45;2.90;;;;;;;43.63;17.24;100828.03;5043014;28;20401;-84
2022/06/27 10:37:42;;;;;;;8.18;3.30;;;;;;;42.71;17.42;100815.97;5056912;28;20025;-87
2022/06/27 10:40:23;;;;;;;7.85;3.88;;;;;;;42.26;17.53;100837.28;5055873;28;20479;-88
2022/06/27 10:42:56;;;;;;;8.40;2.97;;;;;;;42.03;18.15;100820.28;5066011;28;20093;-85
2022/06/27 10:45:28;;;;;;;8.55;3.25;;;;;;;42.42;17.79;100817.47;5035125;28;20037;-84
2022/06/27 10:48:01;;;;;;;11.45;2.90;;;;;;;41.73;18.48;100801.91;5038546;28;20500;-86
2022/06/27 10:50:50;;;;;;;7.83;2.93;;;;;;;40.78;19.40;100801.19;5057824;28;20036;-88
2022/06/27 10:53:22;;;;;;;7.78;3.10;;;;;;;40.50;19.86;100813.31;5059808;28;20263;-89
2022/06/27 10:55:55;;;;;;;25.33;3.40;;;;;;;39.25;20.68;100810.34;5057519;28;20109;-88
2022/06/27 10:58:33;;;;;;;14.77;2.83;;;;;;;38.61;21.82;100815.41;5033763;28;20749;-87
2022/06/27 11:01:18;;;;;;;7.05;2.55;;;;;;;38.54;22.14;100795.50;5059217;28;20361;-88
2022/06/27 11:03:47;;;;;;;20.42;3.28;;;;;;;38.79;22.17;100799.16;5058246;28;20101;-87
2022/06/27 11:06:15;;;;;;;9.82;3.00;;;;;;;38.97;21.84;100796.19;5046526;28;20052;-86
2022/06/27 11:08:46;;;;;;;6.35;3.03;;;;;;;39.18;21.34;100780.00;5035680;28;20036;-87
2022/06/27 11:11:30;;;;;;;6.22;2.83;;;;;;;38.85;21.56;100758.44;5019266;28;20028;-88
2022/06/27 11:14:01;;;;;;;9.35;2.95;;;;;;;38.21;21.94;100793.50;5038107;28;21484;-87
2022/06/27 11:16:37;;;;;;;9.95;3.03;;;;;;;37.53;23.13;100767.63;5007980;28;20075;-89
2022/06/27 11:20:04;;;;;;;4.97;2.70;;;;;;;37.96;22.19;100778.53;5038665;28;20142;-87
2022/06/27 11:21:58;;;;;;;11.98;3.60;;;;;;;38.18;21.75;100779.34;5040419;28;20037;-87
2022/06/27 11:24:30;;;;;;;10.43;3.00;;;;;;;38.32;21.94;100774.22;5070419;28;20039;-86
2022/06/27 11:27:04;;;;;;;33.83;3.42;;;;;;;37.49;22.90;100775.91;5057433;28;20553;-86
2022/06/27 11:32:28;;;;;;;5.88;2.58;;;;;;;36.21;24.48;100788.06;5055642;28;20578;-84
2022/06/27 11:35:05;;;;;;;26.98;3.78;;;;;;;35.54;24.96;100764.97;5067868;28;20056;-88
2022/06/27 11:37:32;;;;;;;8.38;2.78;;;;;;;35.15;25.93;100791.03;5035275;28;20493;-87
2022/06/27 11:40:07;;;;;;;23.80;3.47;;;;;;;34.86;26.31;100798.78;5056058;28;20039;-88
2022/06/27 11:42:42;;;;;;;9.63;2.75;;;;;;;34.28;26.57;100793.31;5054898;28;20064;-84
2022/06/27 11:45:11;;;;;;;12.13;3.10;;;;;;;33.96;27.37;100817.50;5042648;28;20508;-85